Accueil
METAR-TAF:

METAR-TAF

Aéroports :

Tchita, Russie

latitude: 52-05N, longitude: 113-29E, altitude: 685 m

Observation

Le bulletin a été fait il y a 39 minutes, à 06:30 UTC
Vent 23 kt de ouest avec des rafales jusqu'à 33 kt
Température 3°C
Humidité 35%
Pression 1012 hPa
Visibilité 10 km ou plus

METAR: UIAA 210630Z 27012G17MPS 9999 NSC 03/M11 Q1012 R29/70D NOSIG RMK QFE700/0934

Heure: 16:09 (07:09 UTC)

Prévision

Le bulletin a été fait il y a 2 heures et 9 minutes, à 05:00 UTC
Prévision valable du 21 à 06 UTC au 22 à 06 UTC
Vent 16 kt de ouest avec des rafales jusqu'à 33 kt
Visibilité 10 km ou plus
Nuages épars à une hauteur de 4000 ft, Cumulonimbus.
Temporairement
du 21 à 15 UTC au 22 à 03 UTC
Vent 6 kt de sud-ouest avec des rafales jusqu'à 16 kt

TAF: UIAA 210500Z 2106/2206 28008G17MPS 9999 SCT040CB TEMPO 2115/2203 22003G08MPS

Observations et prévisions météorologiques de plus de 4000 aéroports (messages METAR et TAF).

Les stations disponibles sont représentées par des disques jaunes et rouges sur la carte.

Passer la souris dessus pour voir le nom de la station.

Cliquer dessus pour voir les observations et prévisions météorologiques.

Pour changer de carte: cliquez sur les boutons verts avec une croix noire pour zoomer, sur le bouton vert avec un tiret pour effectuer un zoom arrière, ou sur les flèches vertes pour les cartes adjacentes.


METAR-TAF: